createdAt,value
2022-11-20T00:01:38.003Z,98939.13
2022-11-20T00:04:06.211Z,98929.31
2022-11-20T00:06:34.375Z,98937.03
2022-11-20T00:09:03.667Z,98942.84
2022-11-20T00:11:34.239Z,98930.34
2022-11-20T00:14:04.010Z,98938.09
2022-11-20T00:16:34.300Z,98945.56
2022-11-20T00:19:02.308Z,98930.84
2022-11-20T00:21:31.072Z,98933.13
2022-11-20T00:24:00.081Z,98935.78
2022-11-20T00:26:29.134Z,98930.38
2022-11-20T00:29:00.297Z,98929.53
2022-11-20T00:31:28.874Z,98949.69
2022-11-20T00:33:57.097Z,98936.06
2022-11-20T00:36:28.285Z,98933.81
2022-11-20T00:38:58.053Z,98939.25
2022-11-20T00:41:27.549Z,98926.03
2022-11-20T00:43:57.225Z,98923.94
2022-11-20T00:46:28.297Z,98922.22
2022-11-20T00:48:56.573Z,98937.34
2022-11-20T00:51:26.953Z,98947.53
2022-11-20T00:53:57.499Z,98938.53
2022-11-20T00:56:25.648Z,98940.44
2022-11-20T00:58:53.602Z,98947.56
2022-11-20T01:01:25.236Z,98942.13
2022-11-20T01:03:56.989Z,98939.28
2022-11-20T01:06:27.427Z,98952.81
2022-11-20T01:08:58.157Z,98948.59
2022-11-20T01:11:27.871Z,98927.16
2022-11-20T01:13:58.167Z,98928.78
2022-11-20T01:16:28.278Z,98943.47
2022-11-20T01:18:59.520Z,98923.00
2022-11-20T01:21:29.787Z,98927.97
2022-11-20T01:23:58.649Z,98938.44
2022-11-20T01:26:28.364Z,98917.03
2022-11-20T01:28:57.405Z,98910.19
2022-11-20T01:31:27.995Z,98902.28
2022-11-20T01:34:00.419Z,98926.75
2022-11-20T01:36:31.053Z,98903.50
2022-11-20T01:39:00.964Z,98907.69
2022-11-20T01:41:47.819Z,98901.16
2022-11-20T01:44:17.909Z,98898.00
2022-11-20T01:46:57.996Z,98894.88
2022-11-20T01:49:36.120Z,98886.97
2022-11-20T01:52:07.410Z,98880.72
2022-11-20T01:54:40.340Z,98889.66
2022-11-20T01:57:12.218Z,98895.50
2022-11-20T01:59:43.294Z,98876.03
2022-11-20T02:02:11.636Z,98876.03
2022-11-20T02:04:41.045Z,98872.47
2022-11-20T02:07:10.499Z,98872.91
2022-11-20T02:09:38.526Z,98884.13
2022-11-20T02:12:27.694Z,98869.78
2022-11-20T02:14:55.044Z,98868.22
2022-11-20T02:17:23.206Z,98873.00
2022-11-20T02:19:53.205Z,98863.59
2022-11-20T02:22:26.967Z,98861.22
2022-11-20T02:24:56.906Z,98860.03
2022-11-20T02:27:25.183Z,98862.38
2022-11-20T02:29:56.238Z,98857.78
2022-11-20T02:32:26.485Z,98851.22
2022-11-20T02:34:54.682Z,98853.16
2022-11-20T02:37:23.307Z,98843.06
2022-11-20T02:39:53.565Z,98833.00
2022-11-20T02:42:22.985Z,98836.31
2022-11-20T02:44:51.076Z,98837.50
2022-11-20T02:47:19.147Z,98839.44
2022-11-20T02:49:47.167Z,98834.69
2022-11-20T02:52:15.262Z,98861.06
2022-11-20T02:54:43.289Z,98850.69
2022-11-20T02:57:11.393Z,98847.22
2022-11-20T02:59:40.907Z,98850.69
2022-11-20T03:02:09.124Z,98845.97
2022-11-20T03:04:37.258Z,98852.94
2022-11-20T03:07:05.752Z,98835.44
2022-11-20T03:09:33.898Z,98837.75
2022-11-20T03:12:02.067Z,98830.81
2022-11-20T03:14:33.405Z,98841.19
2022-11-20T03:17:02.917Z,98848.69
2022-11-20T03:19:31.181Z,98844.88
2022-11-20T03:21:59.231Z,98846.06
2022-11-20T03:24:27.446Z,98837.66
2022-11-20T03:26:55.571Z,98825.59
2022-11-20T03:29:23.723Z,98829.53
2022-11-20T03:31:52.028Z,98832.59
2022-11-20T03:34:21.426Z,98828.66
2022-11-20T03:36:49.536Z,98833.31
2022-11-20T03:39:17.757Z,98827.19
2022-11-20T03:41:45.951Z,98827.19
2022-11-20T03:44:14.532Z,98844.69
2022-11-20T03:46:42.584Z,98850.88
2022-11-20T03:49:10.659Z,98840.38
2022-11-20T03:51:40.145Z,98852.47
2022-11-20T03:54:11.365Z,98842.78
2022-11-20T03:56:40.880Z,98838.13
2022-11-20T03:59:09.187Z,98835.75
2022-11-20T04:01:39.095Z,98843.09
2022-11-20T04:04:07.170Z,98848.94
2022-11-20T04:06:38.437Z,98841.53
2022-11-20T04:09:08.666Z,98835.34
2022-11-20T04:11:38.268Z,98845.84
2022-11-20T04:14:08.032Z,98856.03
2022-11-20T04:16:37.897Z,98837.41
2022-11-20T04:19:08.031Z,98863.13
2022-11-20T04:21:36.207Z,98860.75
2022-11-20T04:24:05.482Z,98862.63
2022-11-20T04:26:35.633Z,98862.94
2022-11-20T04:29:03.796Z,98852.47
2022-11-20T04:31:34.850Z,98852.78
2022-11-20T04:34:03.772Z,98850.50
2022-11-20T04:36:50.187Z,98845.94
2022-11-20T04:39:18.185Z,98840.53
2022-11-20T04:41:47.841Z,98830.41
2022-11-20T04:44:16.045Z,98850.63
2022-11-20T04:46:44.850Z,98847.56
2022-11-20T04:49:13.702Z,98860.75
2022-11-20T04:51:41.815Z,98846.38
2022-11-20T04:54:10.823Z,98844.47
2022-11-20T04:56:38.872Z,98854.63
2022-11-20T04:59:08.281Z,98859.31
2022-11-20T05:01:36.418Z,98862.00
2022-11-20T05:04:04.603Z,98850.38
2022-11-20T05:06:32.725Z,98856.59
2022-11-20T05:09:02.032Z,98851.47
2022-11-20T05:11:30.852Z,98840.66
2022-11-20T05:14:01.535Z,98853.09
2022-11-20T05:16:31.356Z,98858.56
2022-11-20T05:18:59.488Z,98869.84
2022-11-20T05:21:27.430Z,98866.75
2022-11-20T05:23:55.560Z,98865.94
2022-11-20T05:26:25.021Z,98868.69
2022-11-20T05:28:54.044Z,98864.75
2022-11-20T05:31:27.045Z,98856.91
2022-11-20T05:33:58.651Z,98853.81
2022-11-20T05:36:26.786Z,98858.50
2022-11-20T05:39:01.039Z,98856.91
2022-11-20T05:41:29.843Z,98862.00
2022-11-20T05:43:58.956Z,98855.03
2022-11-20T05:46:29.071Z,98846.09
2022-11-20T05:49:00.090Z,98853.06
2022-11-20T05:51:28.579Z,98878.69
2022-11-20T05:53:58.973Z,98861.56
2022-11-20T05:56:27.128Z,98876.31
2022-11-20T05:58:55.247Z,98870.41
2022-11-20T06:01:25.468Z,98860.78
2022-11-20T06:03:55.278Z,98891.44
2022-11-20T06:06:26.303Z,98861.53
2022-11-20T06:08:54.458Z,98865.38
2022-11-20T06:11:22.736Z,98856.91
2022-11-20T06:13:50.774Z,98866.28
2022-11-20T06:16:21.414Z,98847.28
2022-11-20T06:18:49.927Z,98892.81
2022-11-20T06:21:20.267Z,98853.91
2022-11-20T06:23:50.553Z,98891.66
2022-11-20T06:26:21.032Z,98904.56
2022-11-20T06:28:49.700Z,98895.59
2022-11-20T06:31:20.111Z,98891.25
2022-11-20T06:33:48.283Z,98882.34
2022-11-20T06:36:18.527Z,98893.66
2022-11-20T06:38:47.014Z,98891.75
2022-11-20T06:41:19.173Z,98880.09
2022-11-20T06:43:47.558Z,98896.47
2022-11-20T06:46:18.640Z,98900.38
2022-11-20T06:48:47.432Z,98896.06
2022-11-20T06:51:15.834Z,98897.66
2022-11-20T06:53:43.940Z,98887.91
2022-11-20T06:56:12.224Z,98907.34
2022-11-20T06:58:42.111Z,98910.09
2022-11-20T07:01:13.154Z,98904.63
2022-11-20T07:03:41.872Z,98913.97
2022-11-20T07:06:10.268Z,98914.75
2022-11-20T07:08:38.716Z,98921.00
2022-11-20T07:11:09.102Z,98899.56
2022-11-20T07:13:37.675Z,98903.47
2022-11-20T07:16:09.405Z,98910.84
2022-11-20T07:18:38.665Z,98903.84
2022-11-20T07:21:09.704Z,98900.69
2022-11-20T07:23:37.938Z,98908.09
2022-11-20T07:26:06.959Z,98914.34
2022-11-20T07:28:35.337Z,98911.63
2022-11-20T07:31:06.034Z,98911.63
2022-11-20T07:33:36.632Z,98921.75
2022-11-20T07:36:05.173Z,98927.22
2022-11-20T07:38:33.272Z,98931.88
2022-11-20T07:41:02.837Z,98942.03
2022-11-20T07:43:31.120Z,98928.38
2022-11-20T07:45:59.505Z,98930.31
2022-11-20T07:48:31.193Z,98942.81
2022-11-20T07:51:12.459Z,98926.06
2022-11-20T07:53:43.689Z,98929.16
2022-11-20T07:56:11.777Z,98931.50
2022-11-20T07:58:39.745Z,98937.34
2022-11-20T08:01:09.581Z,98920.59
2022-11-20T08:03:39.562Z,98923.72
2022-11-20T08:06:13.457Z,98922.91
2022-11-20T08:08:43.022Z,98925.63
2022-11-20T08:11:28.970Z,98928.75
2022-11-20T08:14:15.173Z,98933.03
2022-11-20T08:16:45.080Z,98926.03
2022-11-20T08:19:13.346Z,98911.59
2022-11-20T08:21:43.191Z,98904.59
2022-11-20T08:24:12.663Z,98912.31
2022-11-20T08:26:42.175Z,98923.16
2022-11-20T08:29:10.358Z,98935.25
2022-11-20T08:31:38.529Z,98937.16
2022-11-20T08:34:09.466Z,98927.75
2022-11-20T08:36:38.491Z,98920.72
2022-11-20T08:39:08.080Z,98906.09
2022-11-20T08:41:37.868Z,98906.47
2022-11-20T08:44:07.939Z,98908.34
2022-11-20T08:46:38.233Z,98914.09
2022-11-20T08:49:07.028Z,98903.75
2022-11-20T08:51:35.551Z,98900.78
2022-11-20T08:54:03.959Z,98896.63
2022-11-20T08:56:35.430Z,98900.41
2022-11-20T08:59:26.931Z,98905.31
2022-11-20T09:01:53.226Z,98907.59
2022-11-20T09:04:21.309Z,98901.81
2022-11-20T09:06:52.197Z,98908.31
2022-11-20T09:09:21.011Z,98910.81
2022-11-20T09:11:51.343Z,98902.38
2022-11-20T09:14:19.515Z,98893.31
2022-11-20T09:16:48.183Z,98892.81
2022-11-20T09:22:04.723Z,98892.13
2022-11-20T09:24:33.029Z,98889.69
2022-11-20T09:27:04.381Z,98886.16
2022-11-20T09:29:32.516Z,98876.53
2022-11-20T09:32:00.750Z,98877.69
2022-11-20T09:34:28.967Z,98864.53
2022-11-20T09:36:57.155Z,98859.88
2022-11-20T09:39:25.538Z,98857.28
2022-11-20T09:42:14.261Z,98852.16
2022-11-20T09:45:11.729Z,98840.16
2022-11-20T09:47:55.611Z,98835.28
2022-11-20T09:50:32.991Z,98832.38
2022-11-20T09:53:17.128Z,98830.31
2022-11-20T09:55:48.874Z,98827.47
2022-11-20T09:58:33.513Z,98825.50
2022-11-20T10:01:11.901Z,98819.16
2022-11-20T10:03:52.544Z,98821.66
2022-11-20T10:06:26.527Z,98831.81
2022-11-20T10:09:03.945Z,98831.63
2022-11-20T10:11:41.724Z,98832.41
2022-11-20T10:14:23.060Z,98819.84
2022-11-20T10:17:03.690Z,98817.53
2022-11-20T10:19:49.865Z,98827.66
2022-11-20T10:22:32.219Z,98822.28
2022-11-20T10:25:08.039Z,98814.78
2022-11-20T10:27:51.535Z,98806.41
2022-11-20T10:30:26.016Z,98807.38
2022-11-20T10:33:05.948Z,98795.72
2022-11-20T10:35:38.372Z,98802.31
2022-11-20T10:38:15.223Z,98801.66
2022-11-20T10:40:46.716Z,98793.16
2022-11-20T10:43:18.673Z,98793.50
2022-11-20T10:45:53.770Z,98796.25
2022-11-20T10:48:24.929Z,98773.22
2022-11-20T10:51:07.202Z,98771.22
2022-11-20T10:53:54.581Z,98763.72
2022-11-20T10:56:27.018Z,98779.88
2022-11-20T10:59:25.070Z,98786.78
2022-11-20T11:01:54.508Z,98781.72
2022-11-20T11:04:38.258Z,98778.13
2022-11-20T11:07:13.047Z,98768.44
2022-11-20T11:09:45.125Z,98769.97
2022-11-20T11:12:13.699Z,98764.25
2022-11-20T11:14:49.339Z,98757.03
2022-11-20T11:17:29.465Z,98746.78
2022-11-20T11:20:07.330Z,98742.25
2022-11-20T11:22:45.951Z,98736.09
2022-11-20T11:25:23.235Z,98746.75
2022-11-20T11:27:55.133Z,98743.25
2022-11-20T11:30:23.924Z,98730.25
2022-11-20T11:33:04.179Z,98722.88
2022-11-20T11:35:33.167Z,98718.78
2022-11-20T11:38:07.036Z,98727.50
2022-11-20T11:40:42.282Z,98729.25
2022-11-20T11:43:37.946Z,98725.22
2022-11-20T11:46:25.846Z,98737.41
2022-11-20T11:49:00.121Z,98746.88
2022-11-20T11:51:36.606Z,98748.66
2022-11-20T11:54:10.911Z,98740.91
2022-11-20T11:56:39.071Z,98740.25
2022-11-20T11:59:14.093Z,98742.44
2022-11-20T12:01:49.801Z,98748.84
2022-11-20T12:04:38.918Z,98741.09
2022-11-20T12:07:44.453Z,98734.09
2022-11-20T12:10:04.196Z,98743.03
2022-11-20T12:12:38.884Z,98734.53
2022-11-20T12:15:12.095Z,98733.97
2022-11-20T12:17:40.228Z,98732.53
2022-11-20T12:20:15.492Z,98727.22
2022-11-20T12:22:55.688Z,98719.19
2022-11-20T12:25:28.235Z,98719.97
2022-11-20T12:28:23.143Z,98724.28
2022-11-20T12:31:04.081Z,98715.25
2022-11-20T12:33:48.247Z,98718.53
2022-11-20T12:36:27.039Z,98709.97
2022-11-20T12:39:19.478Z,98708.78
2022-11-20T12:42:24.755Z,98704.28
2022-11-20T12:45:12.501Z,98698.16
2022-11-20T12:48:13.016Z,98694.50
2022-11-20T12:51:14.063Z,98693.94
2022-11-20T12:53:53.614Z,98708.03
2022-11-20T12:56:34.477Z,98701.66
2022-11-20T12:59:20.948Z,98700.69
2022-11-20T13:01:54.204Z,98715.22
2022-11-20T13:04:51.238Z,98707.41
2022-11-20T13:07:20.705Z,98703.56
2022-11-20T13:09:53.025Z,98697.38
2022-11-20T13:12:27.605Z,98724.03
2022-11-20T13:15:02.562Z,98723.00
2022-11-20T13:17:36.652Z,98727.28
2022-11-20T13:20:07.832Z,98733.22
2022-11-20T13:22:46.466Z,98729.94
2022-11-20T13:25:26.756Z,98731.66
2022-11-20T13:27:56.059Z,98736.34
2022-11-20T13:30:26.135Z,98735.00
2022-11-20T13:32:56.798Z,98739.09
2022-11-20T13:35:31.560Z,98741.06
2022-11-20T13:38:05.742Z,98754.63
2022-11-20T13:40:36.257Z,98753.91
2022-11-20T13:43:13.460Z,98755.88
2022-11-20T13:45:41.554Z,98758.09
2022-11-20T13:48:23.063Z,98760.44
2022-11-20T13:51:01.868Z,98765.47
2022-11-20T13:53:41.452Z,98764.06
2022-11-20T13:56:24.393Z,98777.63
2022-11-20T13:59:04.940Z,98785.31
2022-11-20T14:01:35.728Z,98798.75
2022-11-20T14:04:10.433Z,98802.84
2022-11-20T14:06:44.834Z,98804.81
2022-11-20T14:09:14.940Z,98803.53
2022-11-20T14:11:49.944Z,98796.94
2022-11-20T14:14:22.211Z,98793.66
2022-11-20T14:16:52.198Z,98788.94
2022-11-20T14:19:31.544Z,98779.09
2022-11-20T14:22:19.760Z,98784.09
2022-11-20T14:24:48.144Z,98779.25
2022-11-20T14:27:20.617Z,98777.50
2022-11-20T14:29:51.693Z,98773.00
2022-11-20T14:32:21.519Z,98778.69
2022-11-20T14:34:51.941Z,98786.22
2022-11-20T14:37:23.969Z,98773.97
2022-11-20T14:39:54.629Z,98771.44
2022-11-20T14:42:25.902Z,98772.34
2022-11-20T14:44:57.234Z,98766.50
2022-11-20T14:47:28.184Z,98763.81
2022-11-20T14:49:57.982Z,98743.53
2022-11-20T14:52:27.805Z,98742.41
2022-11-20T14:54:56.854Z,98750.03
2022-11-20T14:57:29.149Z,98747.88
2022-11-20T15:00:10.262Z,98734.31
2022-11-20T15:02:43.617Z,98730.63
2022-11-20T15:05:12.345Z,98735.97
2022-11-20T15:07:46.704Z,98738.06
2022-11-20T15:10:21.909Z,98735.94
2022-11-20T15:12:52.769Z,98740.03
2022-11-20T15:15:27.103Z,98750.84
2022-11-20T15:17:55.660Z,98749.72
2022-11-20T15:20:26.666Z,98736.66
2022-11-20T15:22:54.722Z,98741.72
2022-11-20T15:25:22.704Z,98755.09
2022-11-20T15:27:55.617Z,98759.06
2022-11-20T15:30:24.438Z,98757.06
2022-11-20T15:32:52.482Z,98762.91
2022-11-20T15:35:20.550Z,98770.88
2022-11-20T15:37:48.547Z,98771.03
2022-11-20T15:40:17.140Z,98765.94
2022-11-20T15:43:06.773Z,98761.13
2022-11-20T15:45:43.663Z,98759.53
2022-11-20T15:48:16.064Z,98758.50
2022-11-20T15:50:52.652Z,98770.25
2022-11-20T15:53:21.071Z,98761.72
2022-11-20T15:55:49.213Z,98765.16
2022-11-20T15:58:18.183Z,98769.44
2022-11-20T16:00:48.165Z,98775.75
2022-11-20T16:03:18.078Z,98779.53
2022-11-20T16:05:46.549Z,98781.44
2022-11-20T16:08:15.034Z,98793.66
2022-11-20T16:10:43.467Z,98791.34
2022-11-20T16:13:34.079Z,98811.28
2022-11-20T16:16:07.284Z,98823.84
2022-11-20T16:18:35.942Z,98809.41
2022-11-20T16:21:03.932Z,98801.34
2022-11-20T16:23:32.090Z,98810.75
2022-11-20T16:26:00.204Z,98834.53
2022-11-20T16:28:28.348Z,98833.38
2022-11-20T16:30:56.463Z,98835.69
2022-11-20T16:33:25.910Z,98837.63
2022-11-20T16:35:53.928Z,98831.34
2022-11-20T16:38:22.082Z,98829.78
2022-11-20T16:40:50.261Z,98836.34
2022-11-20T16:43:18.500Z,98831.28
2022-11-20T16:45:47.491Z,98833.97
2022-11-20T16:48:16.774Z,98842.97
2022-11-20T16:50:52.049Z,98830.47
2022-11-20T16:53:21.347Z,98839.34
2022-11-20T16:55:49.883Z,98838.13
2022-11-20T16:58:18.207Z,98845.28
2022-11-20T17:00:51.464Z,98851.13
2022-11-20T17:03:21.074Z,98853.13
2022-11-20T17:05:51.075Z,98828.56
2022-11-20T17:08:19.353Z,98844.94
2022-11-20T17:10:47.541Z,98848.53
2022-11-20T17:13:15.655Z,98850.13
2022-11-20T17:15:43.728Z,98846.50
2022-11-20T17:18:11.892Z,98832.50
2022-11-20T17:20:39.964Z,98819.13
2022-11-20T17:23:09.462Z,98810.16
2022-11-20T17:25:37.832Z,98801.22
2022-11-20T17:28:06.590Z,98802.91
2022-11-20T17:30:34.641Z,98807.16
2022-11-20T17:33:03.077Z,98809.97
2022-11-20T17:35:31.166Z,98813.94
2022-11-20T17:37:59.350Z,98805.38
2022-11-20T17:40:28.798Z,98805.41
2022-11-20T17:42:56.758Z,98798.78
2022-11-20T17:45:25.034Z,98814.41
2022-11-20T17:47:53.096Z,98817.13
2022-11-20T17:50:21.368Z,98808.16
2022-11-20T17:52:49.541Z,98801.91
2022-11-20T17:55:17.855Z,98811.66
2022-11-20T17:57:58.038Z,98813.28
2022-11-20T18:00:27.055Z,98812.53
2022-11-20T18:02:55.387Z,98814.50
2022-11-20T18:05:23.509Z,98799.31
2022-11-20T18:07:54.624Z,98776.31
2022-11-20T18:10:22.763Z,98768.91
2022-11-20T18:12:54.011Z,98761.03
2022-11-20T18:15:22.029Z,98759.09
2022-11-20T18:17:50.235Z,98785.63
2022-11-20T18:20:28.962Z,98783.28
2022-11-20T18:23:00.117Z,98784.13
2022-11-20T18:25:28.363Z,98765.41
2022-11-20T18:27:57.875Z,98771.28
2022-11-20T18:30:27.199Z,98778.72
2022-11-20T18:32:55.777Z,98773.66
2022-11-20T18:35:23.875Z,98784.59
2022-11-20T18:37:52.173Z,98771.34
2022-11-20T18:40:20.303Z,98755.00
2022-11-20T18:43:05.619Z,98747.63
2022-11-20T18:45:35.438Z,98746.41
2022-11-20T18:48:03.434Z,98744.09
2022-11-20T18:50:31.560Z,98732.47
2022-11-20T18:52:59.738Z,98734.78
2022-11-20T18:55:27.823Z,98744.53
2022-11-20T18:57:56.078Z,98744.94
2022-11-20T19:00:24.940Z,98752.34
2022-11-20T19:02:55.615Z,98758.16
2022-11-20T19:05:23.831Z,98744.53
2022-11-20T19:07:52.440Z,98750.38
2022-11-20T19:10:21.346Z,98757.41
2022-11-20T19:12:49.440Z,98755.88
2022-11-20T19:15:17.610Z,98751.97
2022-11-20T19:17:45.715Z,98761.72
2022-11-20T19:20:15.365Z,98755.44
2022-11-20T19:22:43.683Z,98759.34
2022-11-20T19:25:15.364Z,98752.69
2022-11-20T19:27:43.593Z,98761.22
2022-11-20T19:30:12.892Z,98772.09
2022-11-20T19:32:40.982Z,98763.91
2022-11-20T19:35:10.686Z,98774.03
2022-11-20T19:37:40.089Z,98767.41
2022-11-20T19:40:09.133Z,98755.69
2022-11-20T19:42:37.127Z,98731.16
2022-11-20T19:45:05.726Z,98709.81
2022-11-20T19:48:06.142Z,98685.66
2022-11-20T19:50:21.913Z,98676.22
2022-11-20T19:52:55.835Z,98695.72
2022-11-20T19:55:26.936Z,98707.78
2022-11-20T19:57:55.261Z,98705.09
2022-11-20T20:00:31.071Z,98696.59
2022-11-20T20:03:00.768Z,98697.44
2022-11-20T20:05:28.894Z,98692.72
2022-11-20T20:07:59.208Z,98699.66
2022-11-20T20:10:28.444Z,98701.97
2022-11-20T20:12:56.482Z,98693.47
2022-11-20T20:18:10.491Z,98707.97
2022-11-20T20:20:38.606Z,98713.03
2022-11-20T20:23:08.156Z,98708.00
2022-11-20T20:25:38.369Z,98706.44
2022-11-20T20:28:06.909Z,98710.69
2022-11-20T20:30:37.397Z,98699.78
2022-11-20T20:33:07.525Z,98679.97
2022-11-20T20:35:35.967Z,98682.72
2022-11-20T20:38:03.964Z,98677.31
2022-11-20T20:40:33.727Z,98662.53
2022-11-20T20:43:01.679Z,98652.78
2022-11-20T20:45:29.713Z,98663.31
2022-11-20T20:47:57.932Z,98655.88
2022-11-20T20:50:25.992Z,98657.78
2022-11-20T20:52:54.513Z,98650.00
2022-11-20T20:55:22.622Z,98647.69
2022-11-20T20:57:53.694Z,98645.75
2022-11-20T21:00:21.818Z,98648.88
2022-11-20T21:02:49.871Z,98641.91
2022-11-20T21:05:18.098Z,98639.56
2022-11-20T21:07:59.973Z,98645.44
2022-11-20T21:10:28.255Z,98625.94
2022-11-20T21:12:57.693Z,98625.56
2022-11-20T21:15:25.693Z,98624.78
2022-11-20T21:17:53.749Z,98620.50
2022-11-20T21:20:39.575Z,98602.59
2022-11-20T21:23:10.575Z,98609.22
2022-11-20T21:25:39.547Z,98608.81
2022-11-20T21:28:10.431Z,98609.22
2022-11-20T21:30:41.181Z,98612.72
2022-11-20T21:33:09.204Z,98604.16
2022-11-20T21:35:37.936Z,98591.66
2022-11-20T21:38:06.443Z,98606.78
2022-11-20T21:40:34.460Z,98607.56
2022-11-20T21:43:02.481Z,98608.69
2022-11-20T21:45:31.955Z,98608.28
2022-11-20T21:47:59.987Z,98604.06
2022-11-20T21:50:28.024Z,98593.16
2022-11-20T21:52:57.174Z,98583.00
2022-11-20T21:55:25.227Z,98591.59
2022-11-20T21:57:53.219Z,98595.56
2022-11-20T22:00:21.675Z,98602.16
2022-11-20T22:02:51.039Z,98611.19
2022-11-20T22:05:19.131Z,98606.50
2022-11-20T22:07:47.282Z,98618.22
2022-11-20T22:10:18.424Z,98631.44
2022-11-20T22:12:46.961Z,98651.72
2022-11-20T22:15:23.731Z,98644.31
2022-11-20T22:18:14.729Z,98635.00
2022-11-20T22:20:44.161Z,98624.50
2022-11-20T22:23:12.323Z,98635.00
2022-11-20T22:25:40.434Z,98631.88
2022-11-20T22:28:08.446Z,98608.59
2022-11-20T22:30:36.395Z,98563.88
2022-11-20T22:33:10.387Z,98560.38
2022-11-20T22:35:41.242Z,98554.56
2022-11-20T22:38:09.361Z,98537.84
2022-11-20T22:40:37.420Z,98533.56
2022-11-20T22:43:05.547Z,98526.59
2022-11-20T22:45:33.692Z,98513.38
2022-11-20T22:48:01.798Z,98494.75
2022-11-20T22:50:32.669Z,98487.75
2022-11-20T22:53:01.384Z,98472.22
2022-11-20T22:55:30.481Z,98452.81
2022-11-20T22:57:59.599Z,98449.69
2022-11-20T23:00:27.831Z,98431.06
2022-11-20T23:02:56.523Z,98422.91
2022-11-20T23:05:26.328Z,98413.59
2022-11-20T23:07:55.890Z,98420.22
2022-11-20T23:10:24.021Z,98397.66
2022-11-20T23:12:52.112Z,98399.59
2022-11-20T23:15:20.250Z,98409.69
2022-11-20T23:17:48.295Z,98401.94
2022-11-20T23:20:16.618Z,98404.66
2022-11-20T23:22:44.687Z,98398.03
2022-11-20T23:25:14.563Z,98386.00
2022-11-20T23:27:42.597Z,98391.41
2022-11-20T23:30:11.943Z,98376.31
2022-11-20T23:32:40.546Z,98373.59
2022-11-20T23:35:09.453Z,98372.41
2022-11-20T23:37:38.618Z,98358.06
2022-11-20T23:40:08.531Z,98350.31
2022-11-20T23:42:58.012Z,98338.66
2022-11-20T23:45:26.430Z,98330.91
2022-11-20T23:47:54.486Z,98356.13
2022-11-20T23:50:22.984Z,98360.00
2022-11-20T23:52:51.211Z,98320.06
2022-11-20T23:55:19.249Z,98291.34
2022-11-20T23:57:48.940Z,98294.84
